Time;durP1;ratioP1;P1;durP2;ratioP2;P2;SDS_P1;SDS_P2;PMS_P1;PMS_P2;Temp;Humidity;BMP_temperature;BMP_pressure;BME280_temperature;BME280_humidity;BME280_pressure;Samples;Min_cycle;Max_cycle;Signal;HPM_P1;HPM_P2
2022/05/24 00:02:40;;;;;;;8.25;7.00;;;;;;;9.38;67.57;100113.62;3477971;80;21002;-79
2022/05/24 00:07:34;;;;;;;10.23;7.40;;;;;;;9.29;68.10;100100.11;3465267;79;20931;-79
2022/05/24 00:12:25;;;;;;;10.48;8.28;;;;;;;9.32;68.51;100107.94;3491132;81;21145;-79
2022/05/24 00:17:16;;;;;;;8.55;7.42;;;;;;;9.30;68.31;100104.43;3418246;82;21037;-79
2022/05/24 00:22:07;;;;;;;9.60;7.67;;;;;;;9.23;68.35;100102.61;3444026;82;21076;-79
2022/05/24 00:26:58;;;;;;;11.10;6.83;;;;;;;9.20;68.41;100097.41;3443972;82;20926;-79
2022/05/24 00:31:49;;;;;;;9.10;7.60;;;;;;;9.15;68.70;100093.02;3343939;83;22223;-80
2022/05/24 00:36:40;;;;;;;9.20;7.53;;;;;;;9.14;68.80;100086.10;3333023;83;21489;-79
2022/05/24 00:41:42;;;;;;;9.05;6.65;;;;;;;9.18;69.02;100091.34;3359079;82;20983;-79
2022/05/24 00:46:50;;;;;;;7.97;6.70;;;;;;;9.14;68.95;100088.69;3401103;83;20940;-79
2022/05/24 00:52:06;;;;;;;9.88;7.17;;;;;;;9.11;69.21;100085.19;3472705;80;20993;-79
2022/05/24 00:57:28;;;;;;;8.05;6.97;;;;;;;9.11;69.36;100090.38;3391709;83;20968;-79
2022/05/24 01:02:19;;;;;;;10.10;6.67;;;;;;;9.06;69.32;100092.90;3416948;82;21160;-80
2022/05/24 01:07:12;;;;;;;7.60;6.90;;;;;;;9.03;69.55;100086.40;3379148;82;21000;-80
2022/05/24 01:12:09;;;;;;;9.25;7.40;;;;;;;8.98;69.51;100084.16;3399880;82;21746;-79
2022/05/24 01:17:02;;;;;;;7.35;6.22;;;;;;;8.93;69.48;100082.80;3405032;83;22183;-79
2022/05/24 01:21:57;;;;;;;6.22;5.62;;;;;;;8.91;69.74;100080.61;3353357;82;20977;-79
2022/05/24 01:26:55;;;;;;;7.37;6.40;;;;;;;8.89;69.73;100075.84;3435168;81;22276;-79
2022/05/24 01:36:57;;;;;;;6.97;6.28;;;;;;;8.82;70.08;100070.13;3400503;81;21904;-79
2022/05/24 01:41:48;;;;;;;6.62;5.72;;;;;;;8.76;69.91;100076.50;3421238;81;20982;-79
2022/05/24 01:46:44;;;;;;;7.92;7.12;;;;;;;8.71;70.22;100076.45;3419543;81;21168;-79
2022/05/24 01:51:46;;;;;;;6.55;5.95;;;;;;;8.71;70.22;100076.45;3447001;81;20999;-79
2022/05/24 01:56:45;;;;;;;6.65;6.05;;;;;;;8.70;70.32;100079.88;3458797;81;20891;-80
2022/05/24 02:01:45;;;;;;;7.80;7.08;;;;;;;8.66;70.61;100082.42;3437236;81;20919;-79
2022/05/24 02:06:36;;;;;;;7.03;6.33;;;;;;;8.59;70.71;100074.97;3457302;81;21477;-79
2022/05/24 02:11:30;;;;;;;8.95;6.53;;;;;;;8.59;70.71;100074.97;3366981;82;21469;-79
2022/05/24 02:16:24;;;;;;;7.10;6.33;;;;;;;8.58;70.60;100061.56;3385284;83;21049;-80
2022/05/24 02:21:15;;;;;;;7.55;6.40;;;;;;;8.54;70.66;100058.48;3415172;81;20963;-79
2022/05/24 02:26:10;;;;;;;8.65;7.70;;;;;;;8.51;70.77;100064.51;3383067;81;21058;-79
2022/05/24 02:31:06;;;;;;;7.70;6.90;;;;;;;8.48;70.74;100067.48;3402224;81;21109;-79
2022/05/24 02:35:57;;;;;;;10.15;7.60;;;;;;;8.47;71.15;100059.24;3393908;81;21434;-80
2022/05/24 02:46:00;;;;;;;8.23;6.55;;;;;;;8.45;71.03;100051.88;3356168;83;21090;-79
2022/05/24 02:50:51;;;;;;;9.18;6.35;;;;;;;8.40;71.14;100053.92;3397336;81;21002;-80
2022/05/24 02:55:42;;;;;;;6.95;6.25;;;;;;;8.40;71.32;100053.92;3371614;81;21023;-80
2022/05/24 03:00:34;;;;;;;9.33;7.25;;;;;;;8.35;71.24;100025.81;3389985;81;21190;-80
2022/05/24 03:05:27;;;;;;;9.20;7.37;;;;;;;8.35;71.24;100025.81;3400798;81;21232;-79
2022/05/24 03:10:18;;;;;;;8.30;7.50;;;;;;;8.38;71.56;100029.72;3333021;84;20998;-79
2022/05/24 03:15:10;;;;;;;7.87;7.12;;;;;;;8.47;71.74;100028.16;3376654;81;20939;-79
2022/05/24 03:20:04;;;;;;;8.50;6.80;;;;;;;8.51;71.83;100028.64;3473044;80;20936;-80
2022/05/24 03:24:54;;;;;;;8.90;7.92;;;;;;;8.55;71.99;100027.85;3443508;79;20916;-79
2022/05/24 03:29:47;;;;;;;8.75;7.85;;;;;;;8.65;72.02;100036.61;3432505;80;21010;-80
2022/05/24 03:34:39;;;;;;;9.73;8.78;;;;;;;8.72;72.15;100030.23;3429422;80;21653;-80
2022/05/24 03:39:31;;;;;;;8.55;7.65;;;;;;;8.78;72.15;100034.22;3453539;80;21006;-80
2022/05/24 03:44:23;;;;;;;10.40;7.85;;;;;;;8.92;72.24;100029.62;3456581;80;21012;-80
2022/05/24 03:49:15;;;;;;;8.73;7.92;;;;;;;9.09;72.23;100030.70;3441354;80;21058;-80
2022/05/24 03:54:06;;;;;;;7.70;6.85;;;;;;;9.22;72.16;100025.23;3498087;80;21938;-80
2022/05/24 03:58:57;;;;;;;9.18;8.20;;;;;;;9.39;71.90;100029.33;3398462;80;20975;-80
2022/05/24 04:03:48;;;;;;;9.43;8.53;;;;;;;9.38;72.10;100026.27;3465115;80;20939;-80
2022/05/24 04:08:39;;;;;;;9.20;7.85;;;;;;;9.40;72.27;100025.00;3461849;81;20907;-79
2022/05/24 04:13:32;;;;;;;9.08;8.15;;;;;;;9.40;72.27;100025.00;3459065;81;21492;-80
2022/05/24 04:18:24;;;;;;;9.53;8.23;;;;;;;9.45;72.59;100020.30;3371312;81;21841;-78
2022/05/24 04:23:19;;;;;;;11.70;8.33;;;;;;;9.62;73.11;100021.78;3387799;81;21627;-79
2022/05/24 04:28:10;;;;;;;10.85;9.00;;;;;;;9.74;72.87;100021.00;3426809;81;21269;-79
2022/05/24 04:33:02;;;;;;;10.32;9.23;;;;;;;9.74;72.87;100021.00;3443131;81;21017;-79
2022/05/24 04:37:53;;;;;;;16.80;10.18;;;;;;;9.85;73.20;100016.77;3403943;81;21537;-79
2022/05/24 04:42:45;;;;;;;10.40;9.33;;;;;;;9.85;73.20;100016.77;3411977;81;21090;-79
2022/05/24 04:47:36;;;;;;;16.85;10.85;;;;;;;10.09;73.86;100023.05;3426457;82;21018;-79
2022/05/24 04:52:32;;;;;;;15.00;11.05;;;;;;;10.09;73.86;100023.05;3421052;81;20916;-79
2022/05/24 04:57:24;;;;;;;13.88;12.13;;;;;;;10.28;73.87;100030.13;3425595;82;20978;-79
2022/05/24 05:02:16;;;;;;;14.43;11.15;;;;;;;10.44;74.10;100028.50;3393604;81;21573;-79
2022/05/24 05:07:08;;;;;;;13.48;10.85;;;;;;;10.54;74.21;100010.39;3360167;83;21533;-79
2022/05/24 05:12:00;;;;;;;11.95;10.60;;;;;;;11.12;74.47;100020.19;3326607;84;20972;-79
2022/05/24 05:16:51;;;;;;;11.90;10.70;;;;;;;11.12;74.47;100020.19;3492771;80;20925;-79
2022/05/24 05:21:42;;;;;;;12.13;10.68;;;;;;;11.40;74.27;100022.01;3462321;81;21060;-78
2022/05/24 05:26:34;;;;;;;10.82;8.63;;;;;;;11.65;73.88;100015.55;3406482;81;21294;-79
2022/05/24 05:31:28;;;;;;;15.08;8.85;;;;;;;11.90;73.63;100022.09;3430485;80;20949;-79
2022/05/24 05:36:21;;;;;;;7.53;6.83;;;;;;;12.13;72.95;100022.98;3385036;80;20926;-79
2022/05/24 05:41:17;;;;;;;7.47;6.30;;;;;;;12.40;71.78;100021.23;3404792;80;20952;-79
2022/05/24 05:46:09;;;;;;;7.17;6.47;;;;;;;12.77;70.98;100023.76;3447155;81;21000;-80
2022/05/24 05:51:01;;;;;;;6.62;5.12;;;;;;;13.07;70.31;100021.89;3440667;80;20972;-79
2022/05/24 05:55:52;;;;;;;5.78;5.22;;;;;;;13.35;69.59;100023.52;3469812;80;22060;-79
2022/05/24 06:00:44;;;;;;;5.90;5.30;;;;;;;13.70;69.02;100017.22;3385042;80;21039;-80
2022/05/24 06:05:36;;;;;;;5.83;5.20;;;;;;;14.02;68.28;100017.42;3440190;80;21010;-80
2022/05/24 06:10:29;;;;;;;5.53;4.33;;;;;;;14.37;67.25;100017.53;3389256;80;21309;-80
2022/05/24 06:15:21;;;;;;;7.03;4.10;;;;;;;14.75;65.62;100013.67;3419275;80;21572;-80
2022/05/24 06:20:14;;;;;;;4.40;3.72;;;;;;;15.33;64.86;100014.70;3434956;80;21325;-80
2022/05/24 06:25:07;;;;;;;5.28;4.47;;;;;;;15.78;63.36;100008.84;3458714;80;20969;-80
2022/05/24 06:29:59;;;;;;;3.85;3.55;;;;;;;16.52;61.36;99997.07;3414829;80;20958;-80
2022/05/24 06:34:53;;;;;;;5.17;3.62;;;;;;;18.05;58.93;100005.19;3409809;80;21006;-80
2022/05/24 06:39:46;;;;;;;5.33;3.15;;;;;;;18.41;57.81;100003.81;3434375;82;21006;-80
2022/05/24 06:44:38;;;;;;;2.90;2.70;;;;;;;19.05;55.62;100001.19;3433941;82;21134;-81
2022/05/24 06:49:29;;;;;;;3.80;3.10;;;;;;;18.89;56.08;99995.92;3444563;80;21089;-80
2022/05/24 06:54:20;;;;;;;3.65;3.20;;;;;;;18.59;55.33;99995.41;3409339;80;20990;-81
2022/05/24 07:04:22;;;;;;;6.03;2.77;;;;;;;19.03;53.54;99987.20;3425641;80;21085;-81
2022/05/24 07:09:13;;;;;;;3.47;2.57;;;;;;;19.32;52.46;99990.27;3451417;80;21037;-84
2022/05/24 07:14:04;;;;;;;2.37;2.20;;;;;;;19.44;51.42;99974.50;3441360;82;21752;-86
2022/05/24 07:18:55;;;;;;;2.42;2.17;;;;;;;19.71;51.08;99986.41;3498137;79;20997;-81
2022/05/24 07:23:46;;;;;;;3.70;2.27;;;;;;;21.19;48.78;99968.89;3500045;80;20901;-90
2022/05/24 07:28:37;;;;;;;3.75;2.17;;;;;;;22.62;45.29;99958.16;3448526;79;21033;-84
2022/05/24 07:33:28;;;;;;;4.25;2.22;;;;;;;24.51;43.34;99950.30;3462338;79;20986;-85
2022/05/24 07:38:19;;;;;;;5.45;2.72;;;;;;;27.27;40.24;99955.57;3455941;79;20926;-84
2022/05/24 07:48:21;;;;;;;3.22;2.30;;;;;;;31.28;35.40;99955.95;3472224;79;21019;-85
2022/05/24 07:53:14;;;;;;;2.37;2.02;;;;;;;29.97;35.57;99963.03;3429644;80;21286;-82
2022/05/24 07:58:06;;;;;;;2.92;2.15;;;;;;;29.62;35.02;99965.20;3529250;79;22634;-80
2022/05/24 08:02:57;;;;;;;3.40;2.00;;;;;;;27.85;35.69;99958.89;3450769;79;20966;-86
2022/05/24 08:07:54;;;;;;;4.15;2.30;;;;;;;26.66;35.51;99954.11;3455888;80;21017;-83
2022/05/24 08:12:45;;;;;;;2.65;1.95;;;;;;;25.88;35.90;99952.03;3477163;79;21018;-80
2022/05/24 08:17:36;;;;;;;4.33;2.87;;;;;;;25.40;34.73;99960.58;3456345;79;21410;-80
2022/05/24 08:22:28;;;;;;;2.27;2.10;;;;;;;27.19;34.08;99955.20;3353095;81;21062;-83
2022/05/24 08:27:19;;;;;;;4.45;2.35;;;;;;;28.81;30.92;99940.31;3426887;81;20987;-80
2022/05/24 08:32:11;;;;;;;2.40;2.20;;;;;;;29.69;30.30;99951.33;3394996;81;21519;-86
2022/05/24 08:37:02;;;;;;;3.55;2.02;;;;;;;29.56;31.09;99957.59;3384941;82;21464;-85
2022/05/24 08:42:30;;;;;;;4.10;2.50;;;;;;;29.57;29.78;99959.81;3396286;82;21532;-86
2022/05/24 08:52:47;;;;;;;3.15;2.33;;;;;;;29.61;29.57;99967.48;3247163;85;21028;-85
2022/05/24 08:57:54;;;;;;;3.45;2.30;;;;;;;27.86;31.33;99965.08;3292383;85;20955;-86
2022/05/24 09:02:48;;;;;;;3.62;2.20;;;;;;;26.38;31.61;99969.97;3285382;85;21051;-82
2022/05/24 09:07:56;;;;;;;2.30;2.10;;;;;;;25.64;32.59;99975.60;3295422;85;21043;-83
2022/05/24 09:13:23;;;;;;;2.40;1.67;;;;;;;25.12;32.70;99976.70;3264366;86;23231;-84
2022/05/24 09:18:22;;;;;;;3.00;2.30;;;;;;;25.61;32.75;99960.28;3449751;79;20974;-86
2022/05/24 09:23:22;;;;;;;1.90;1.70;;;;;;;26.53;32.47;99953.50;3516508;79;21471;-84
2022/05/24 09:28:13;;;;;;;3.10;2.05;;;;;;;26.38;33.17;99963.76;3509699;79;20986;-81
2022/05/24 09:33:25;;;;;;;2.40;2.10;;;;;;;25.97;33.31;99963.98;3502786;79;21101;-88
2022/05/24 09:38:18;;;;;;;3.52;2.17;;;;;;;27.44;31.70;99955.82;3431469;81;21546;-84
2022/05/24 09:43:30;;;;;;;2.30;2.08;;;;;;;29.06;29.60;99943.41;3490283;80;20995;-84
2022/05/24 09:48:26;;;;;;;2.72;2.05;;;;;;;30.67;28.62;99941.11;3491396;81;20998;-84
2022/05/24 09:53:19;;;;;;;;;;;;;;;31.43;28.22;99936.40;3488004;81;20931;-84
2022/05/24 09:58:37;;;;;;;2.98;1.80;;;;;;;31.85;26.51;99922.54;3490663;81;20152;-84
2022/05/24 10:03:46;;;;;;;2.40;1.95;;;;;;;31.74;25.36;99932.02;3488096;79;21166;-85
2022/05/24 10:08:45;;;;;;;1.98;1.87;;;;;;;31.90;25.88;99927.54;3478170;79;21263;-85
2022/05/24 10:13:53;;;;;;;4.62;2.60;;;;;;;31.78;26.54;99924.05;3524284;79;21364;-84
2022/05/24 10:19:14;;;;;;;3.05;2.37;;;;;;;31.14;25.81;99927.57;3557693;79;20969;-84
2022/05/24 10:24:25;;;;;;;2.85;1.90;;;;;;;30.32;26.71;99925.96;3525109;79;20942;-83
2022/05/24 10:29:37;;;;;;;3.40;2.00;;;;;;;30.11;26.95;99931.66;3510140;79;21707;-83
2022/05/24 10:40:29;;;;;;;2.50;1.80;;;;;;;29.58;27.43;99924.02;3509364;79;20997;-83
2022/05/24 10:45:25;;;;;;;2.90;2.22;;;;;;;28.64;28.53;99916.97;3534695;79;20922;-83
2022/05/24 10:50:31;;;;;;;2.22;2.05;;;;;;;27.57;28.17;99922.00;3503782;79;20997;-85
2022/05/24 10:55:40;;;;;;;4.10;2.12;;;;;;;26.71;29.84;99904.88;3523870;79;20969;-84
2022/05/24 11:00:48;;;;;;;2.70;2.50;;;;;;;25.95;30.41;99906.41;3482107;79;20958;-83
2022/05/24 11:05:56;;;;;;;2.50;2.30;;;;;;;25.52;30.66;99904.92;3471468;79;20989;-82
2022/05/24 11:10:50;;;;;;;4.35;2.47;;;;;;;25.43;31.12;99901.87;3480154;79;21554;-84
2022/05/24 11:15:49;;;;;;;2.52;2.33;;;;;;;25.58;31.49;99903.26;3522921;79;21496;-84
2022/05/24 11:20:46;;;;;;;3.62;2.47;;;;;;;25.57;32.02;99904.19;3522632;80;21288;-83
2022/05/24 11:25:49;;;;;;;3.22;2.40;;;;;;;25.36;31.72;99903.17;3447528;79;20951;-84
2022/05/24 11:30:42;;;;;;;2.65;2.45;;;;;;;25.11;32.01;99910.30;3471707;79;21498;-80
2022/05/24 11:35:40;;;;;;;2.77;2.55;;;;;;;25.23;32.56;99914.08;3519923;79;20978;-81
2022/05/24 11:40:42;;;;;;;4.10;2.33;;;;;;;24.94;32.44;99909.92;3488198;79;20958;-82
2022/05/24 11:45:47;;;;;;;4.22;2.40;;;;;;;24.41;32.70;99907.03;3481003;80;21181;-81
2022/05/24 11:50:43;;;;;;;3.98;2.15;;;;;;;23.89;33.60;99918.09;3485781;80;20986;-82
2022/05/24 11:55:45;;;;;;;2.15;1.80;;;;;;;23.42;33.67;99914.68;3429204;79;21501;-81
2022/05/24 12:00:40;;;;;;;4.20;2.65;;;;;;;23.02;33.97;99916.58;3507095;80;22256;-80
2022/05/24 12:11:12;;;;;;;2.08;1.95;;;;;;;22.82;34.32;99911.75;3490361;80;21491;-81
2022/05/24 12:16:09;;;;;;;1.95;1.70;;;;;;;22.87;34.25;99914.64;3467771;80;20934;-84
2022/05/24 12:21:00;;;;;;;2.25;2.08;;;;;;;23.41;33.95;99912.95;3471025;80;20952;-79
2022/05/24 12:26:12;;;;;;;2.77;1.90;;;;;;;23.73;33.53;99911.82;3468604;79;21045;-82
2022/05/24 12:31:21;;;;;;;4.42;2.40;;;;;;;24.15;34.05;99903.97;3452155;79;20950;-83
2022/05/24 12:36:28;;;;;;;3.62;2.10;;;;;;;24.33;33.00;99901.66;3479320;79;20994;-84
2022/05/24 12:41:27;;;;;;;2.27;2.17;;;;;;;24.25;32.88;99909.19;3500819;79;20955;-81
2022/05/24 12:46:18;;;;;;;2.67;1.75;;;;;;;24.25;33.37;99910.52;3543277;79;21492;-81
2022/05/24 12:51:11;;;;;;;1.98;1.60;;;;;;;24.21;33.04;99900.97;3468009;79;20970;-81
2022/05/24 12:56:11;;;;;;;4.20;2.12;;;;;;;24.12;33.39;99895.67;3477847;79;21481;-80
2022/05/24 13:01:24;;;;;;;2.60;2.08;;;;;;;23.96;33.75;99892.95;3474402;79;21484;-84
2022/05/24 13:06:23;;;;;;;3.17;2.12;;;;;;;23.75;34.13;99888.71;3457887;79;20955;-83
2022/05/24 13:11:15;;;;;;;6.03;2.92;;;;;;;23.43;34.53;99883.25;3495993;79;20946;-85
2022/05/24 13:16:07;;;;;;;4.83;2.02;;;;;;;23.16;34.85;99883.67;3473468;79;20926;-82
2022/05/24 13:21:05;;;;;;;2.12;2.02;;;;;;;23.08;35.13;99879.67;3463439;80;20946;-85
2022/05/24 13:26:08;;;;;;;2.60;2.15;;;;;;;23.07;35.36;99883.23;3469394;79;21500;-84
2022/05/24 13:36:46;;;;;;;2.90;2.62;;;;;;;22.82;35.62;99902.91;3474414;79;21480;-79
2022/05/24 13:41:45;;;;;;;2.83;1.90;;;;;;;22.63;36.15;99903.78;3510981;79;20999;-81
2022/05/24 13:47:01;;;;;;;5.35;3.98;;;;;;;22.34;36.40;99917.03;3483540;79;21041;-79
2022/05/24 13:51:53;;;;;;;3.75;2.90;;;;;;;22.01;36.90;99913.55;3484058;79;21185;-80
2022/05/24 13:56:49;;;;;;;6.03;2.72;;;;;;;21.76;37.03;99926.12;3466219;79;20958;-83
2022/05/24 14:01:41;;;;;;;2.53;2.10;;;;;;;21.55;37.36;99922.10;3508358;79;22105;-80
2022/05/24 14:06:38;;;;;;;2.45;2.10;;;;;;;21.38;37.86;99920.59;3475913;79;22162;-78
2022/05/24 14:11:33;;;;;;;3.33;2.05;;;;;;;21.21;37.96;99916.85;3503303;79;20997;-79
2022/05/24 14:16:29;;;;;;;2.80;2.47;;;;;;;21.10;38.61;99916.39;3497730;79;20975;-79
2022/05/24 14:21:29;;;;;;;4.07;2.37;;;;;;;21.01;38.90;99920.72;3470984;80;21014;-80
2022/05/24 14:26:19;;;;;;;3.77;2.45;;;;;;;20.92;39.23;99920.14;3459626;79;20970;-79
2022/05/24 14:31:13;;;;;;;3.17;2.60;;;;;;;20.97;39.69;99925.73;3523924;79;21047;-79
2022/05/24 14:36:05;;;;;;;2.12;1.98;;;;;;;20.98;39.35;99922.16;3479546;81;21026;-79
2022/05/24 14:40:56;;;;;;;3.25;2.27;;;;;;;20.94;39.37;99920.97;3460671;79;22659;-79
2022/05/24 14:45:48;;;;;;;2.60;2.10;;;;;;;20.95;39.60;99912.58;3487010;79;21524;-78
2022/05/24 14:50:39;;;;;;;2.90;1.98;;;;;;;20.97;40.09;99916.48;3462275;79;20923;-79
2022/05/24 14:55:30;;;;;;;1.85;1.72;;;;;;;20.94;39.51;99922.30;3447026;79;20975;-78
2022/05/24 15:00:24;;;;;;;3.85;2.00;;;;;;;20.95;39.61;99912.58;3405250;79;21021;-80
2022/05/24 15:05:16;;;;;;;3.42;2.10;;;;;;;20.98;39.52;99906.30;3498422;79;21413;-80
2022/05/24 15:15:21;;;;;;;1.87;1.77;;;;;;;21.10;39.27;99908.46;3452715;79;20923;-81
2022/05/24 15:20:17;;;;;;;3.12;2.00;;;;;;;21.06;39.50;99902.91;3482095;79;20927;-83
2022/05/24 15:25:13;;;;;;;2.73;1.80;;;;;;;21.04;39.77;99895.50;3488923;79;20954;-80
2022/05/24 15:30:09;;;;;;;3.73;2.30;;;;;;;20.99;40.04;99898.78;3475462;81;21503;-77
2022/05/24 15:35:02;;;;;;;4.17;2.90;;;;;;;20.93;40.06;99891.96;3441022;79;34699;-79
2022/05/24 15:39:53;;;;;;;4.12;2.10;;;;;;;20.80;39.88;99894.22;3447715;79;20942;-78
2022/05/24 15:44:44;;;;;;;3.70;2.42;;;;;;;20.72;40.22;99900.25;3463995;81;21496;-78
2022/05/24 15:49:35;;;;;;;3.52;2.60;;;;;;;20.68;39.93;99898.65;3391228;79;20951;-81
2022/05/24 15:54:27;;;;;;;3.45;2.10;;;;;;;20.61;40.38;99903.73;3469888;79;21025;-78
2022/05/24 15:59:18;;;;;;;2.65;2.37;;;;;;;20.52;40.72;99899.65;3475355;79;20982;-76
2022/05/24 16:04:10;;;;;;;3.37;2.30;;;;;;;20.46;41.10;99898.10;3471899;79;20930;-75
2022/05/24 16:10:02;;;;;;;3.30;1.90;;;;;;;20.41;41.49;99912.36;3445863;79;21045;-75
2022/05/24 16:14:13;;;;;;;2.55;2.17;;;;;;;20.34;41.50;99906.47;3449253;79;20959;-76
2022/05/24 16:19:06;;;;;;;2.40;2.20;;;;;;;20.27;41.50;99904.97;3454706;81;21093;-77
2022/05/24 16:23:57;;;;;;;2.17;1.98;;;;;;;20.26;42.06;99909.83;3424940;80;20983;-76
2022/05/24 16:28:51;;;;;;;3.52;2.25;;;;;;;20.17;41.92;99909.26;3456588;81;21002;-76
2022/05/24 16:33:41;;;;;;;3.50;1.92;;;;;;;20.08;42.65;99920.11;3484243;79;22221;-78
2022/05/24 16:38:35;;;;;;;2.20;1.98;;;;;;;19.97;43.46;99931.50;3457364;80;21014;-77
2022/05/24 16:43:26;;;;;;;2.90;2.27;;;;;;;19.78;44.75;99920.27;3433704;80;21159;-78
2022/05/24 16:48:18;;;;;;;5.05;2.35;;;;;;;19.53;45.54;99920.62;3454107;81;20946;-80
2022/05/24 16:53:18;;;;;;;3.10;2.50;;;;;;;19.33;45.77;99926.08;3430175;80;20928;-77
2022/05/24 17:03:18;;;;;;;3.22;2.85;;;;;;;19.09;46.22;99922.45;3500728;79;20958;-77
2022/05/24 17:08:10;;;;;;;4.03;2.83;;;;;;;19.01;46.25;99931.03;3472019;80;20960;-78
2022/05/24 17:13:08;;;;;;;4.42;2.50;;;;;;;18.93;46.97;99940.49;3420527;80;20960;-78
2022/05/24 17:17:59;;;;;;;4.20;2.50;;;;;;;18.83;47.25;99941.67;3439176;80;20943;-78
2022/05/24 17:22:53;;;;;;;4.08;2.58;;;;;;;18.75;47.62;99952.40;3401021;83;20952;-78
2022/05/24 17:27:44;;;;;;;2.58;2.37;;;;;;;18.70;47.79;99954.30;3354948;82;20932;-78
2022/05/24 17:32:59;;;;;;;3.70;2.95;;;;;;;18.64;48.60;99959.29;3309933;83;21016;-78
2022/05/24 17:37:50;;;;;;;3.15;2.95;;;;;;;18.54;48.78;99964.39;3388195;83;20948;-78
2022/05/24 17:42:44;;;;;;;3.15;2.85;;;;;;;18.41;49.86;99970.45;3382868;82;20955;-78
2022/05/24 17:47:37;;;;;;;4.20;3.80;;;;;;;18.27;50.60;99966.88;3349411;83;21505;-79
2022/05/24 17:52:28;;;;;;;3.95;3.55;;;;;;;18.07;52.07;99975.75;3378771;83;21007;-80
2022/05/24 17:57:19;;;;;;;3.75;3.45;;;;;;;17.85;53.78;99975.38;3382359;83;21078;-79
2022/05/24 18:02:10;;;;;;;4.87;3.92;;;;;;;17.66;55.13;99976.30;3348245;83;21013;-79
2022/05/24 18:07:01;;;;;;;5.47;3.75;;;;;;;17.49;56.02;99980.19;3354843;83;22061;-78
2022/05/24 18:11:52;;;;;;;4.90;3.55;;;;;;;17.32;56.76;99982.33;3320859;83;20960;-80
2022/05/24 18:16:43;;;;;;;4.92;4.37;;;;;;;17.11;57.78;99974.02;3323159;83;20928;-80
2022/05/24 18:21:39;;;;;;;5.17;4.33;;;;;;;16.87;58.95;99985.06;3400813;81;22096;-81
2022/05/24 18:37:08;;;;;;;6.28;5.75;;;;;;;16.51;61.67;100005.86;3492763;80;20990;-80
2022/05/24 18:42:02;;;;;;;6.42;5.83;;;;;;;16.47;62.30;100007.67;3470565;80;20954;-80
2022/05/24 18:46:55;;;;;;;6.62;6.05;;;;;;;16.44;62.79;100009.48;3481480;80;22214;-80
2022/05/24 18:51:46;;;;;;;10.23;9.10;;;;;;;16.40;63.47;100012.61;3466702;80;20987;-80
2022/05/24 18:56:37;;;;;;;9.83;7.70;;;;;;;16.31;63.94;100018.89;3479158;79;21025;-80
2022/05/24 19:01:28;;;;;;;10.00;8.63;;;;;;;16.31;64.48;100024.55;3427256;80;21911;-80
2022/05/24 19:06:20;;;;;;;12.25;9.83;;;;;;;16.17;64.69;100024.82;3467582;80;21029;-80
2022/05/24 19:11:11;;;;;;;9.43;8.48;;;;;;;16.09;65.56;100024.92;3478087;80;21983;-80
2022/05/24 19:16:02;;;;;;;9.23;8.43;;;;;;;16.14;66.02;100024.41;3450448;80;20974;-80
2022/05/24 19:20:55;;;;;;;12.03;8.95;;;;;;;16.10;66.30;100029.75;3475211;80;21465;-80
2022/05/24 19:25:46;;;;;;;9.85;8.23;;;;;;;16.10;66.52;100040.23;3448522;80;21602;-80
2022/05/24 19:30:38;;;;;;;11.20;9.48;;;;;;;16.06;66.97;100037.22;3462679;80;21513;-80
2022/05/24 19:35:29;;;;;;;8.65;7.70;;;;;;;16.01;67.21;100049.97;3467624;80;21143;-80
2022/05/24 19:45:30;;;;;;;10.25;8.93;;;;;;;16.06;67.75;100050.33;3494604;80;20977;-80
2022/05/24 19:50:21;;;;;;;9.28;8.45;;;;;;;15.98;67.95;100059.19;3485953;80;21012;-79
2022/05/24 19:55:14;;;;;;;10.08;9.03;;;;;;;16.00;68.56;100063.95;3441421;80;21209;-80
2022/05/24 20:00:08;;;;;;;9.18;8.35;;;;;;;16.01;68.94;100067.47;3454022;79;22342;-80
2022/05/24 20:05:00;;;;;;;12.03;10.82;;;;;;;16.00;69.11;100067.03;3487590;80;21430;-80
2022/05/24 20:09:52;;;;;;;9.55;8.73;;;;;;;15.95;69.11;100066.23;3488597;80;21627;-80
2022/05/24 20:14:44;;;;;;;9.13;8.23;;;;;;;15.96;69.52;100067.98;3349395;82;20974;-80
2022/05/24 20:19:37;;;;;;;10.30;9.35;;;;;;;15.95;69.42;100089.83;3397381;81;20958;-81
2022/05/24 20:24:33;;;;;;;9.50;8.55;;;;;;;15.91;69.55;100089.02;3327244;82;21109;-80
2022/05/24 20:29:25;;;;;;;10.27;8.20;;;;;;;15.86;69.66;100086.90;3454663;80;20958;-82
2022/05/24 20:34:16;;;;;;;10.82;8.95;;;;;;;15.81;69.52;100080.88;3357372;82;22106;-80
2022/05/24 20:39:08;;;;;;;9.80;8.90;;;;;;;15.76;70.03;100082.25;3331715;80;20944;-81
2022/05/24 20:43:59;;;;;;;10.32;9.35;;;;;;;15.71;70.15;100081.86;3352963;82;21640;-81
2022/05/24 20:48:50;;;;;;;10.43;9.35;;;;;;;15.68;70.28;100070.11;3363887;81;21085;-81
2022/05/24 20:53:43;;;;;;;8.70;7.97;;;;;;;15.66;70.46;100064.03;3392083;82;21003;-81
2022/05/24 20:58:35;;;;;;;10.50;7.72;;;;;;;15.62;70.61;100071.92;3386380;82;21268;-80
2022/05/24 21:03:27;;;;;;;9.58;8.58;;;;;;;15.61;70.80;100072.83;3376243;83;21486;-81
2022/05/24 21:08:18;;;;;;;8.40;7.60;;;;;;;15.58;70.89;100068.93;3336055;82;21561;-81
2022/05/24 21:13:10;;;;;;;8.35;7.65;;;;;;;15.57;71.11;100073.73;3372771;81;22115;-80
2022/05/24 21:18:02;;;;;;;8.68;7.83;;;;;;;15.55;71.11;100067.66;3355206;82;21359;-80
2022/05/24 21:22:53;;;;;;;9.15;8.20;;;;;;;15.55;71.41;100065.03;3354539;81;20955;-80
2022/05/24 21:28:05;;;;;;;8.88;7.97;;;;;;;15.53;71.49;100057.64;3358202;80;20939;-80
2022/05/24 21:32:58;;;;;;;9.08;8.23;;;;;;;15.48;71.63;100060.77;3356576;82;20983;-80
2022/05/24 21:37:50;;;;;;;9.98;9.00;;;;;;;15.46;71.70;100054.69;3441433;79;21069;-80
2022/05/24 21:42:41;;;;;;;9.83;8.48;;;;;;;15.43;71.97;100052.98;3466684;79;21296;-80
2022/05/24 21:47:32;;;;;;;9.28;8.45;;;;;;;15.41;72.03;100060.43;3474268;79;21033;-80
2022/05/24 21:52:23;;;;;;;9.88;9.03;;;;;;;15.38;71.96;100047.36;3424147;79;21565;-79
2022/05/24 21:57:15;;;;;;;10.10;9.13;;;;;;;15.34;72.08;100048.30;3448673;79;20943;-79
2022/05/24 22:02:06;;;;;;;11.18;10.13;;;;;;;15.31;72.30;100052.27;3461960;79;21440;-79
2022/05/24 22:06:57;;;;;;;10.00;9.10;;;;;;;15.24;72.48;100051.50;3437517;79;20993;-79
2022/05/24 22:11:48;;;;;;;11.40;10.18;;;;;;;15.21;72.61;100047.15;3451204;79;20970;-79
2022/05/24 22:16:39;;;;;;;12.45;9.63;;;;;;;15.21;72.71;100039.29;3450022;79;22378;-79
2022/05/24 22:21:30;;;;;;;11.60;10.55;;;;;;;15.19;72.80;100034.97;3497133;79;21006;-79
2022/05/24 22:26:22;;;;;;;11.10;9.95;;;;;;;15.12;72.90;100035.48;3483024;79;20958;-79
2022/05/24 22:31:14;;;;;;;10.08;9.18;;;;;;;15.10;73.00;100038.57;3469967;79;20943;-79
2022/05/24 22:36:06;;;;;;;10.72;9.78;;;;;;;15.06;73.07;100036.88;3483075;79;20983;-79
2022/05/24 22:41:11;;;;;;;11.55;10.45;;;;;;;15.02;73.26;100041.71;3442255;79;21008;-79
2022/05/24 22:46:11;;;;;;;11.20;10.10;;;;;;;14.97;73.40;100039.59;3488449;79;20983;-79
2022/05/24 22:51:14;;;;;;;11.20;9.63;;;;;;;14.96;73.55;100040.48;3456949;79;20984;-79
2022/05/24 22:56:07;;;;;;;8.53;7.78;;;;;;;14.92;73.67;100045.34;3508375;79;20979;-79
2022/05/24 23:00:58;;;;;;;9.78;8.83;;;;;;;14.88;73.70;100047.13;3536760;79;21552;-79
2022/05/24 23:05:54;;;;;;;9.05;8.15;;;;;;;14.86;73.90;100051.07;3488926;80;21858;-79
2022/05/24 23:10:45;;;;;;;9.83;8.18;;;;;;;14.85;74.01;100055.87;3485309;80;20927;-79
2022/05/24 23:15:36;;;;;;;10.53;9.38;;;;;;;14.82;74.08;100054.58;3457896;79;20951;-79
2022/05/24 23:20:27;;;;;;;10.00;9.10;;;;;;;14.79;74.22;100065.11;3465279;80;20926;-79
2022/05/24 23:25:20;;;;;;;9.28;8.38;;;;;;;14.77;74.37;100072.11;3449743;80;21438;-79
2022/05/24 23:30:11;;;;;;;9.00;8.10;;;;;;;14.79;74.54;100072.95;3452426;79;21499;-79
2022/05/24 23:35:04;;;;;;;8.03;7.30;;;;;;;14.78;74.55;100069.91;3426391;79;20963;-79
2022/05/24 23:39:55;;;;;;;9.05;8.25;;;;;;;14.77;74.65;100061.64;3453365;79;21137;-78
2022/05/24 23:44:46;;;;;;;9.13;8.43;;;;;;;14.76;74.74;100067.75;3495454;80;22117;-79
2022/05/24 23:49:37;;;;;;;9.45;8.55;;;;;;;14.78;74.90;100069.91;3458441;79;21160;-79
2022/05/24 23:54:28;;;;;;;8.25;7.50;;;;;;;14.77;74.95;100068.19;3471912;79;20986;-79
2022/05/24 23:59:20;;;;;;;9.70;8.80;;;;;;;14.75;74.94;100072.55;3443940;79;20955;-79
